KHUM/HUM METAR and TAF weather

Enter ICAO airport designator
Station Type Date Time Source
KHUM METAR 2020/03/31 13:47 UTC NOAA

KHUM 311347Z 26013G19KT 7SM BKN014 BKN020 24/22 A2984


Station Type Date Time Source
KHUM Decoded METAR 2020/03/31 13:47 UTC NOAA

Houma-Terrebonne, LA, United States (KHUM) 29-34N 090-40W
Mar 31, 2020 - 09:47 AM EDT / 2020.03.31 1347 UTC
Wind: from the W (260 degrees) at 15 MPH (13 KT) gusting to 22 MPH (19 KT):0
Visibility: 7 mile(s):0
Sky conditions: mostly cloudy
Temperature: 75 F (24 C)
Dew Point: 71 F (22 C)
Relative Humidity: 88%
Pressure (altimeter): 29.84 in. Hg (1010 hPa)
ob: KHUM 311347Z 26013G19KT 7SM BKN014 BKN020 24/22 A2984
cycle: 14

Station Type Date Time Source
KHUM TAF 2020/03/31 12:22 UTC NOAA

TAF KHUM 311120Z 3112/0112 21010G19KT P6SM BKN013 OVC026
FM311400 24014KT P6SM VCSH SCT015 BKN020
FM311500 26015KT P6SM SCT015 BKN020
FM311800 30014KT P6SM FEW020 SCT250

Example: see airport list